createdAt,value
2023-10-08T00:01:56.998Z,19.59
2023-10-08T00:04:26.636Z,20.17
2023-10-08T00:06:55.990Z,20.15
2023-10-08T00:09:24.988Z,20.24
2023-10-08T00:11:56.600Z,19.62
2023-10-08T00:14:25.861Z,19.51
2023-10-08T00:16:55.351Z,19.57
2023-10-08T00:19:25.829Z,19.43
2023-10-08T00:21:54.810Z,18.97
2023-10-08T00:24:28.491Z,19.14
2023-10-08T00:26:57.538Z,19.10
2023-10-08T00:29:26.797Z,19.00
2023-10-08T00:31:58.453Z,19.12
2023-10-08T00:34:28.727Z,19.13
2023-10-08T00:36:59.313Z,19.04
2023-10-08T00:39:30.761Z,19.00
2023-10-08T00:42:01.064Z,19.08
2023-10-08T00:44:31.102Z,19.05
2023-10-08T00:47:02.841Z,19.30
2023-10-08T00:49:44.893Z,19.43
2023-10-08T00:52:16.052Z,19.58
2023-10-08T00:55:06.268Z,19.63
2023-10-08T00:57:43.543Z,19.85
2023-10-08T01:00:19.275Z,19.50
2023-10-08T01:02:50.754Z,19.31
2023-10-08T01:05:24.913Z,18.96
2023-10-08T01:07:57.020Z,18.77
2023-10-08T01:10:26.478Z,18.80
2023-10-08T01:12:55.383Z,19.00
2023-10-08T01:15:30.743Z,19.15
2023-10-08T01:18:02.931Z,19.28
2023-10-08T01:20:35.890Z,19.00
2023-10-08T01:23:10.955Z,19.20
2023-10-08T01:25:41.952Z,19.25
2023-10-08T01:28:16.035Z,19.35
2023-10-08T01:30:48.272Z,19.91
2023-10-08T01:33:22.433Z,19.68
2023-10-08T01:35:51.469Z,19.08
2023-10-08T01:38:25.095Z,19.45
2023-10-08T01:40:54.538Z,18.60
2023-10-08T01:43:23.985Z,17.69
2023-10-08T01:45:53.718Z,17.68
2023-10-08T01:48:29.703Z,18.09
2023-10-08T01:51:04.389Z,17.74
2023-10-08T01:53:33.492Z,17.65
2023-10-08T01:56:02.867Z,17.36
2023-10-08T01:58:32.194Z,18.51
2023-10-08T02:01:01.757Z,18.59
2023-10-08T02:03:31.035Z,18.58
2023-10-08T02:06:01.237Z,18.15
2023-10-08T02:08:33.210Z,18.57
2023-10-08T02:11:03.852Z,18.04
2023-10-08T02:13:36.008Z,17.23
2023-10-08T02:16:05.400Z,17.50
2023-10-08T02:18:34.582Z,17.15
2023-10-08T02:21:04.078Z,16.80
2023-10-08T02:23:33.043Z,17.74
2023-10-08T02:26:02.264Z,17.70
2023-10-08T02:28:31.478Z,17.17
2023-10-08T02:31:00.738Z,17.05
2023-10-08T02:33:31.832Z,17.91
2023-10-08T02:36:02.415Z,16.95
2023-10-08T02:38:39.096Z,16.93
2023-10-08T02:41:08.313Z,16.38
2023-10-08T02:43:43.590Z,15.65
2023-10-08T02:46:16.775Z,15.69
2023-10-08T02:48:46.006Z,15.99
2023-10-08T02:51:16.015Z,16.46
2023-10-08T02:53:45.630Z,16.25
2023-10-08T02:56:14.809Z,16.76
2023-10-08T02:58:48.913Z,15.66
2023-10-08T03:01:18.094Z,15.64
2023-10-08T03:03:48.225Z,16.11
2023-10-08T03:06:16.305Z,16.37
2023-10-08T03:08:45.265Z,16.56
2023-10-08T03:11:20.315Z,16.01
2023-10-08T03:13:53.173Z,15.31
2023-10-08T03:16:29.427Z,15.89
2023-10-08T03:18:58.748Z,15.65
2023-10-08T03:21:39.869Z,15.18
2023-10-08T03:24:31.067Z,15.24
2023-10-08T03:27:19.499Z,14.68
2023-10-08T03:29:48.864Z,14.88
2023-10-08T03:32:18.360Z,14.86
2023-10-08T03:34:49.961Z,15.15
2023-10-08T03:37:30.759Z,15.38
2023-10-08T03:40:08.818Z,16.10
2023-10-08T03:42:42.373Z,15.99
2023-10-08T03:45:12.849Z,15.91
2023-10-08T03:47:48.222Z,15.92
2023-10-08T03:50:19.231Z,15.63
2023-10-08T03:52:50.088Z,15.86
2023-10-08T03:55:19.605Z,15.94
2023-10-08T03:57:58.492Z,15.95
2023-10-08T04:00:32.848Z,15.85
2023-10-08T04:03:02.624Z,15.81
2023-10-08T04:05:45.840Z,15.64
2023-10-08T04:08:18.932Z,15.65
2023-10-08T04:10:48.214Z,15.78
2023-10-08T04:13:17.766Z,15.96
2023-10-08T04:15:47.450Z,15.62
2023-10-08T04:18:16.709Z,15.55
2023-10-08T04:21:01.989Z,15.59
2023-10-08T04:23:31.747Z,15.78
2023-10-08T04:26:01.340Z,15.59
2023-10-08T04:28:36.049Z,14.47
2023-10-08T04:31:15.992Z,13.88
2023-10-08T04:33:46.805Z,14.26
2023-10-08T04:36:19.504Z,14.18
2023-10-08T04:38:56.081Z,14.32
2023-10-08T04:41:29.524Z,14.92
2023-10-08T04:43:58.529Z,15.51
2023-10-08T04:46:39.797Z,15.48
2023-10-08T04:49:19.022Z,15.81
2023-10-08T04:51:50.379Z,15.81
2023-10-08T04:54:19.662Z,16.36
2023-10-08T04:56:50.550Z,16.09
2023-10-08T04:59:23.584Z,16.13
2023-10-08T05:02:11.192Z,16.44
2023-10-08T05:04:57.206Z,15.96
2023-10-08T05:07:30.008Z,15.85
2023-10-08T05:10:05.159Z,16.28
2023-10-08T05:12:34.672Z,15.87
2023-10-08T05:15:15.876Z,15.92
2023-10-08T05:17:52.503Z,15.88
2023-10-08T05:20:41.423Z,15.50
2023-10-08T05:23:30.678Z,15.68
2023-10-08T05:26:20.471Z,15.76
2023-10-08T05:29:24.565Z,15.45
2023-10-08T05:32:13.703Z,15.80
2023-10-08T05:34:57.724Z,15.34
2023-10-08T05:37:33.435Z,15.82
2023-10-08T05:40:14.788Z,15.97
2023-10-08T05:43:02.360Z,16.24
2023-10-08T05:45:35.859Z,15.85
2023-10-08T05:48:14.911Z,15.79
2023-10-08T05:50:56.650Z,15.31
2023-10-08T05:53:45.183Z,15.03
2023-10-08T05:56:30.426Z,15.23
2023-10-08T05:59:16.451Z,14.43
2023-10-08T06:01:47.677Z,14.60
2023-10-08T06:04:42.816Z,14.38
2023-10-08T06:07:22.035Z,14.81
2023-10-08T06:10:15.082Z,14.47
2023-10-08T06:12:51.438Z,14.91
2023-10-08T06:15:38.868Z,13.74
2023-10-08T06:18:09.472Z,13.52
2023-10-08T06:20:40.866Z,13.23
2023-10-08T06:23:15.356Z,13.02
2023-10-08T06:25:47.463Z,12.93
2023-10-08T06:28:20.992Z,12.93
2023-10-08T06:30:54.923Z,13.16
2023-10-08T06:33:43.484Z,13.06
2023-10-08T06:36:13.423Z,13.11
2023-10-08T06:38:43.594Z,13.38
2023-10-08T06:41:13.931Z,13.12
2023-10-08T06:43:46.682Z,13.74
2023-10-08T06:46:16.135Z,14.14
2023-10-08T06:48:45.995Z,14.41
2023-10-08T06:51:15.417Z,14.25
2023-10-08T06:53:49.438Z,14.33
2023-10-08T06:56:21.180Z,15.07
2023-10-08T06:58:53.760Z,15.03
2023-10-08T07:01:22.750Z,14.82
2023-10-08T07:04:05.062Z,14.33
2023-10-08T07:06:38.819Z,14.55
2023-10-08T07:09:38.127Z,15.02
2023-10-08T07:12:15.090Z,15.34
2023-10-08T07:14:44.991Z,15.28
2023-10-08T07:17:21.833Z,15.19
2023-10-08T07:19:52.489Z,15.11
2023-10-08T07:22:24.970Z,14.15
2023-10-08T07:24:54.706Z,14.73
2023-10-08T07:27:26.080Z,15.17
2023-10-08T07:29:58.036Z,15.18
2023-10-08T07:32:28.391Z,14.03
2023-10-08T07:35:13.580Z,13.80
2023-10-08T07:37:44.251Z,13.69
2023-10-08T07:40:14.412Z,13.34
2023-10-08T07:42:45.154Z,13.38
2023-10-08T07:45:19.123Z,13.81
2023-10-08T07:47:49.455Z,13.51
2023-10-08T07:50:20.133Z,13.26
2023-10-08T07:52:49.148Z,13.31
2023-10-08T07:55:19.530Z,13.46
2023-10-08T07:57:49.459Z,14.09
2023-10-08T08:00:24.961Z,14.92
2023-10-08T08:02:56.650Z,15.97
2023-10-08T08:05:26.807Z,15.32
2023-10-08T08:07:58.024Z,15.72
2023-10-08T08:10:27.374Z,16.17
2023-10-08T08:12:58.351Z,16.38
2023-10-08T08:15:30.231Z,15.93
2023-10-08T08:17:59.654Z,15.87
2023-10-08T08:20:40.376Z,16.24
2023-10-08T08:23:09.847Z,15.75
2023-10-08T08:25:58.809Z,16.27
2023-10-08T08:28:30.254Z,15.65
2023-10-08T08:31:06.472Z,16.10
2023-10-08T08:33:58.721Z,15.63
2023-10-08T08:36:29.331Z,16.16
2023-10-08T08:38:59.389Z,16.49
2023-10-08T08:41:29.190Z,16.78
2023-10-08T08:43:59.907Z,17.21
2023-10-08T08:46:32.975Z,16.89
2023-10-08T08:49:09.510Z,16.25
2023-10-08T08:51:39.364Z,15.95
2023-10-08T08:54:08.679Z,15.86
2023-10-08T08:56:44.955Z,16.33
2023-10-08T08:59:14.843Z,16.54
2023-10-08T09:01:45.498Z,16.40
2023-10-08T09:04:18.121Z,15.50
2023-10-08T09:06:47.471Z,15.43
2023-10-08T09:09:23.880Z,16.01
2023-10-08T09:11:54.146Z,16.88
2023-10-08T09:14:26.544Z,17.85
2023-10-08T09:16:55.570Z,18.36
2023-10-08T09:19:26.366Z,18.55
2023-10-08T09:22:13.256Z,18.99
2023-10-08T09:24:44.068Z,18.91
2023-10-08T09:27:17.071Z,18.01
2023-10-08T09:29:47.700Z,17.27
2023-10-08T09:32:25.193Z,16.68
2023-10-08T09:34:54.960Z,16.86
2023-10-08T09:37:23.928Z,17.45
2023-10-08T09:39:54.950Z,16.70
2023-10-08T09:42:25.850Z,16.57
2023-10-08T09:44:55.756Z,16.52
2023-10-08T09:47:28.296Z,16.68
2023-10-08T09:50:09.246Z,17.24
2023-10-08T09:52:52.193Z,17.87
2023-10-08T09:55:21.560Z,18.36
2023-10-08T09:57:56.757Z,18.39
2023-10-08T10:00:31.897Z,19.17
2023-10-08T10:03:04.785Z,18.93
2023-10-08T10:05:37.163Z,19.03
2023-10-08T10:08:06.774Z,19.55
2023-10-08T10:10:39.470Z,19.91
2023-10-08T10:13:11.613Z,19.99
2023-10-08T10:15:47.160Z,20.00
2023-10-08T10:18:22.876Z,18.85
2023-10-08T10:20:57.449Z,18.55
2023-10-08T10:23:44.512Z,18.51
2023-10-08T10:26:24.399Z,18.20
2023-10-08T10:29:08.840Z,18.03
2023-10-08T10:31:47.966Z,17.47
2023-10-08T10:34:19.482Z,17.67
2023-10-08T10:36:55.562Z,17.33
2023-10-08T10:39:28.912Z,17.52
2023-10-08T10:42:02.939Z,17.46
2023-10-08T10:44:37.840Z,17.43
2023-10-08T10:47:18.859Z,18.41
2023-10-08T10:49:56.490Z,17.88
2023-10-08T10:52:46.098Z,17.82
2023-10-08T10:55:15.919Z,18.18
2023-10-08T10:58:04.976Z,18.79
2023-10-08T11:00:34.303Z,19.02
2023-10-08T11:03:05.769Z,18.77
2023-10-08T11:05:38.924Z,18.33
2023-10-08T11:08:10.121Z,18.35
2023-10-08T11:10:41.423Z,19.18
2023-10-08T11:13:16.830Z,19.51
2023-10-08T11:15:51.011Z,20.40
2023-10-08T11:18:25.142Z,20.20
2023-10-08T11:21:03.090Z,21.19
2023-10-08T11:23:38.736Z,21.37
2023-10-08T11:26:08.258Z,20.86
2023-10-08T11:28:43.906Z,20.19
2023-10-08T11:31:17.128Z,20.62
2023-10-08T11:33:57.071Z,21.11
2023-10-08T11:36:38.602Z,21.23
2023-10-08T11:39:14.835Z,20.78
2023-10-08T11:41:51.466Z,20.12
2023-10-08T11:44:21.040Z,20.21
2023-10-08T11:46:53.203Z,21.05
2023-10-08T11:49:26.980Z,20.72
2023-10-08T11:51:58.850Z,20.35
2023-10-08T11:54:28.874Z,20.25
2023-10-08T11:56:58.282Z,20.29
2023-10-08T11:59:27.277Z,20.55
2023-10-08T12:01:57.866Z,20.21
2023-10-08T12:04:29.853Z,20.25
2023-10-08T12:07:03.800Z,19.86
2023-10-08T12:09:32.731Z,19.41
2023-10-08T12:12:01.935Z,19.72
2023-10-08T12:14:31.865Z,19.70
2023-10-08T12:17:01.707Z,19.72
2023-10-08T12:19:33.617Z,20.01
2023-10-08T12:22:04.001Z,20.52
2023-10-08T12:24:32.967Z,19.73
2023-10-08T12:27:04.468Z,19.83
2023-10-08T12:29:34.477Z,21.05
2023-10-08T12:32:05.273Z,20.46
2023-10-08T12:34:36.583Z,20.58
2023-10-08T12:37:08.816Z,19.74
2023-10-08T12:39:54.203Z,18.90
2023-10-08T12:42:23.468Z,19.22
2023-10-08T12:44:52.752Z,19.82
2023-10-08T12:47:21.938Z,19.81
2023-10-08T12:49:52.773Z,19.32
2023-10-08T12:52:21.919Z,19.11
2023-10-08T12:54:54.345Z,18.74
2023-10-08T12:57:30.379Z,18.81
2023-10-08T13:00:00.730Z,19.05
2023-10-08T13:02:30.090Z,19.00
2023-10-08T13:05:01.101Z,18.93
2023-10-08T13:07:34.129Z,18.49
2023-10-08T13:10:03.416Z,18.46
2023-10-08T13:12:32.445Z,18.90
2023-10-08T13:15:07.652Z,18.72
2023-10-08T13:17:37.142Z,18.25
2023-10-08T13:20:12.967Z,18.39
2023-10-08T13:22:42.143Z,18.50
2023-10-08T13:25:13.301Z,18.78
2023-10-08T13:27:42.286Z,18.68
2023-10-08T13:30:11.958Z,18.39
2023-10-08T13:32:41.501Z,17.97
2023-10-08T13:35:12.565Z,18.12
2023-10-08T13:37:41.806Z,18.29
2023-10-08T13:40:13.604Z,18.56
2023-10-08T13:42:44.084Z,18.50
2023-10-08T13:45:27.427Z,18.67
2023-10-08T13:47:58.044Z,18.40
2023-10-08T13:50:27.279Z,18.25
2023-10-08T13:52:56.430Z,18.02
2023-10-08T13:55:26.580Z,18.34
2023-10-08T13:57:55.789Z,18.82
2023-10-08T14:00:27.728Z,18.62
2023-10-08T14:02:58.482Z,18.64
2023-10-08T14:05:27.674Z,19.18
2023-10-08T14:07:57.955Z,19.29
2023-10-08T14:10:31.004Z,19.15
2023-10-08T14:13:02.903Z,18.29
2023-10-08T14:15:34.195Z,18.26
2023-10-08T14:18:06.595Z,18.15
2023-10-08T14:20:35.733Z,18.16
2023-10-08T14:23:05.537Z,18.39
2023-10-08T14:25:34.878Z,18.02
2023-10-08T14:28:07.904Z,18.22
2023-10-08T14:30:42.534Z,18.18
2023-10-08T14:33:14.796Z,18.00
2023-10-08T14:36:02.649Z,17.72
2023-10-08T14:38:50.173Z,18.22
2023-10-08T14:41:37.944Z,18.10
2023-10-08T14:44:08.023Z,17.90
2023-10-08T14:46:38.181Z,17.99
2023-10-08T14:49:12.134Z,17.81
2023-10-08T14:51:41.835Z,17.97
2023-10-08T14:54:11.216Z,18.01
2023-10-08T14:56:40.653Z,17.88
2023-10-08T14:59:10.228Z,18.26
2023-10-08T15:01:40.480Z,18.04
2023-10-08T15:04:12.850Z,18.95
2023-10-08T15:06:42.138Z,18.29
2023-10-08T15:09:19.907Z,18.02
2023-10-08T15:11:49.771Z,17.87
2023-10-08T15:14:20.358Z,17.63
2023-10-08T15:16:53.466Z,17.45
2023-10-08T15:19:23.582Z,17.05
2023-10-08T15:21:53.275Z,17.09
2023-10-08T15:24:23.699Z,17.14
2023-10-08T15:26:56.499Z,17.01
2023-10-08T15:29:27.606Z,17.68
2023-10-08T15:31:58.230Z,17.51
2023-10-08T15:34:37.116Z,17.53
2023-10-08T15:37:08.750Z,17.17
2023-10-08T15:39:38.077Z,17.41
2023-10-08T15:42:07.370Z,17.36
2023-10-08T15:44:36.564Z,16.95
2023-10-08T15:47:05.534Z,16.96
2023-10-08T15:49:34.604Z,17.24
2023-10-08T15:52:03.911Z,17.48
2023-10-08T15:54:34.477Z,16.99
2023-10-08T15:57:05.897Z,16.93
2023-10-08T15:59:35.036Z,16.54
2023-10-08T16:02:04.762Z,16.54
2023-10-08T16:04:33.705Z,16.75
2023-10-08T16:07:02.766Z,17.08
2023-10-08T16:09:31.972Z,16.64
2023-10-08T16:12:01.253Z,17.16
2023-10-08T16:14:30.583Z,17.06
2023-10-08T16:16:59.805Z,16.75
2023-10-08T16:19:30.231Z,16.68
2023-10-08T16:21:59.269Z,16.78
2023-10-08T16:24:28.537Z,16.76
2023-10-08T16:26:58.511Z,16.55
2023-10-08T16:29:27.780Z,17.14
2023-10-08T16:31:57.188Z,17.65
2023-10-08T16:34:28.455Z,17.32
2023-10-08T16:36:57.631Z,16.86
2023-10-08T16:39:26.963Z,16.87
2023-10-08T16:41:56.418Z,16.77
2023-10-08T16:44:25.423Z,16.55
2023-10-08T16:46:54.685Z,16.03
2023-10-08T16:49:27.827Z,15.96
2023-10-08T16:51:57.466Z,15.72
2023-10-08T16:54:26.471Z,16.41
2023-10-08T16:56:55.441Z,16.45
2023-10-08T16:59:25.843Z,16.41
2023-10-08T17:01:55.084Z,16.25
2023-10-08T17:04:24.314Z,16.31
2023-10-08T17:06:53.335Z,16.10
2023-10-08T17:09:23.525Z,16.28
2023-10-08T17:11:53.833Z,16.19
2023-10-08T17:14:23.973Z,16.44
2023-10-08T17:16:53.154Z,16.12
2023-10-08T17:19:25.053Z,16.19
2023-10-08T17:21:54.341Z,16.70
2023-10-08T17:24:23.618Z,16.12
2023-10-08T17:27:04.025Z,16.32
2023-10-08T17:29:37.325Z,15.94
2023-10-08T17:32:07.873Z,16.18
2023-10-08T17:34:38.011Z,15.97
2023-10-08T17:37:07.538Z,15.67
2023-10-08T17:39:36.561Z,16.15
2023-10-08T17:42:06.248Z,15.59
2023-10-08T17:44:35.580Z,15.33
2023-10-08T17:47:05.625Z,15.58
2023-10-08T17:49:38.309Z,15.33
2023-10-08T17:52:07.614Z,15.45
2023-10-08T17:54:38.529Z,15.22
2023-10-08T17:57:08.943Z,15.20
2023-10-08T17:59:39.289Z,15.66
2023-10-08T18:02:09.058Z,15.28
2023-10-08T18:04:39.439Z,15.63
2023-10-08T18:07:08.692Z,15.15
2023-10-08T18:09:37.655Z,14.91
2023-10-08T18:12:09.492Z,15.02
2023-10-08T18:14:38.520Z,15.20
2023-10-08T18:17:07.939Z,15.11
2023-10-08T18:19:37.713Z,15.10
2023-10-08T18:22:07.248Z,15.43
2023-10-08T18:24:37.684Z,15.43
2023-10-08T18:27:11.150Z,14.97
2023-10-08T18:29:40.219Z,14.74
2023-10-08T18:32:09.168Z,14.72
2023-10-08T18:34:38.321Z,15.08
2023-10-08T18:37:07.502Z,15.28
2023-10-08T18:39:36.746Z,15.41
2023-10-08T18:42:09.470Z,14.87
2023-10-08T18:44:38.684Z,15.05
2023-10-08T18:47:08.056Z,14.77
2023-10-08T18:49:38.187Z,15.11
2023-10-08T18:52:07.476Z,14.96
2023-10-08T18:54:37.957Z,14.74
2023-10-08T18:57:07.559Z,14.79
2023-10-08T18:59:36.641Z,14.67
2023-10-08T19:02:06.932Z,14.59
2023-10-08T19:04:36.082Z,14.57
2023-10-08T19:07:05.480Z,14.56
2023-10-08T19:09:34.481Z,14.42
2023-10-08T19:12:07.491Z,14.44
2023-10-08T19:14:36.961Z,14.46
2023-10-08T19:17:06.980Z,14.40
2023-10-08T19:19:37.442Z,14.52
2023-10-08T19:22:06.466Z,14.66
2023-10-08T19:24:35.822Z,14.52
2023-10-08T19:27:06.748Z,14.47
2023-10-08T19:29:38.137Z,14.59
2023-10-08T19:32:08.090Z,14.74
2023-10-08T19:34:39.447Z,14.59
2023-10-08T19:37:09.168Z,14.59
2023-10-08T19:39:38.414Z,14.49
2023-10-08T19:42:09.083Z,14.35
2023-10-08T19:44:38.229Z,14.35
2023-10-08T19:47:10.660Z,14.65
2023-10-08T19:49:39.617Z,14.71
2023-10-08T19:52:10.232Z,14.38
2023-10-08T19:54:39.571Z,14.79
2023-10-08T19:57:10.934Z,14.62
2023-10-08T19:59:40.270Z,14.52
2023-10-08T20:02:09.569Z,14.56
2023-10-08T20:04:40.365Z,14.70
2023-10-08T20:07:09.618Z,14.97
2023-10-08T20:09:38.639Z,15.09
2023-10-08T20:12:09.036Z,15.25
2023-10-08T20:14:38.006Z,14.62
2023-10-08T20:17:09.955Z,14.74
2023-10-08T20:19:38.956Z,14.46
2023-10-08T20:22:08.167Z,15.24
2023-10-08T20:24:39.419Z,14.58
2023-10-08T20:27:09.525Z,14.18
2023-10-08T20:29:39.539Z,14.07
2023-10-08T20:32:08.958Z,14.21
2023-10-08T20:34:37.922Z,14.31
2023-10-08T20:37:07.068Z,14.21
2023-10-08T20:39:40.636Z,14.83
2023-10-08T20:42:09.989Z,14.68
2023-10-08T20:44:39.722Z,14.29
2023-10-08T20:47:09.141Z,14.49
2023-10-08T20:49:38.869Z,13.92
2023-10-08T20:52:09.552Z,14.32
2023-10-08T20:54:39.517Z,13.94
2023-10-08T20:57:08.849Z,13.91
2023-10-08T20:59:38.209Z,14.20
2023-10-08T21:02:11.598Z,14.02
2023-10-08T21:04:40.850Z,14.24
2023-10-08T21:07:09.825Z,13.91
2023-10-08T21:09:39.994Z,13.91
2023-10-08T21:12:09.348Z,13.68
2023-10-08T21:14:38.547Z,13.23
2023-10-08T21:17:07.644Z,13.29
2023-10-08T21:19:36.795Z,13.73
2023-10-08T21:22:05.941Z,14.07
2023-10-08T21:24:36.504Z,13.39
2023-10-08T21:27:05.743Z,13.01
2023-10-08T21:29:34.950Z,13.27
2023-10-08T21:32:04.244Z,13.63
2023-10-08T21:34:33.437Z,13.61
2023-10-08T21:37:05.635Z,13.15
2023-10-08T21:39:35.222Z,13.32
2023-10-08T21:42:04.232Z,13.07
2023-10-08T21:44:33.545Z,13.04
2023-10-08T21:47:02.762Z,12.90
2023-10-08T21:49:32.340Z,13.40
2023-10-08T21:52:01.802Z,13.80
2023-10-08T21:54:31.130Z,14.17
2023-10-08T21:57:02.866Z,14.35
2023-10-08T21:59:32.291Z,13.94
2023-10-08T22:02:01.267Z,14.41
2023-10-08T22:04:31.640Z,14.79
2023-10-08T22:07:06.714Z,14.88
2023-10-08T22:09:37.786Z,13.98
2023-10-08T22:12:07.697Z,13.44
2023-10-08T22:14:36.894Z,14.40
2023-10-08T22:17:13.589Z,14.74
2023-10-08T22:19:45.407Z,14.62
2023-10-08T22:22:18.943Z,14.33
2023-10-08T22:24:49.528Z,14.59
2023-10-08T22:27:34.866Z,14.59
2023-10-08T22:30:06.669Z,13.82
2023-10-08T22:32:37.940Z,14.17
2023-10-08T22:35:15.546Z,13.62
2023-10-08T22:38:02.982Z,13.95
2023-10-08T22:40:51.320Z,14.16
2023-10-08T22:43:21.058Z,14.13
2023-10-08T22:45:54.269Z,13.92
2023-10-08T22:48:45.098Z,14.05
2023-10-08T22:51:26.155Z,13.52
2023-10-08T22:53:57.735Z,13.92
2023-10-08T22:56:27.161Z,14.44
2023-10-08T22:58:57.066Z,14.67
2023-10-08T23:01:28.958Z,14.35
2023-10-08T23:04:03.522Z,14.15
2023-10-08T23:06:32.672Z,14.00
2023-10-08T23:09:00.905Z,13.72
2023-10-08T23:11:30.151Z,13.07
2023-10-08T23:14:00.754Z,12.81
2023-10-08T23:16:33.844Z,12.78
2023-10-08T23:19:03.135Z,13.19
2023-10-08T23:21:32.326Z,13.21
2023-10-08T23:24:03.487Z,13.28
2023-10-08T23:26:32.396Z,12.97
2023-10-08T23:29:01.865Z,12.73
2023-10-08T23:31:31.907Z,13.00
2023-10-08T23:34:02.353Z,13.31
2023-10-08T23:36:40.734Z,13.95
2023-10-08T23:39:16.446Z,14.40
2023-10-08T23:41:53.344Z,14.22
2023-10-08T23:44:32.507Z,13.92
2023-10-08T23:47:10.836Z,13.71
2023-10-08T23:49:48.845Z,14.16
2023-10-08T23:52:25.009Z,14.15
2023-10-08T23:55:00.888Z,14.13
2023-10-08T23:57:49.354Z,14.24
